Main page
METAR-TAF:

METAR-TAF

Airports :

Moulay Ali Cherif Airport

Er Rachidia, Morocco

latitude: 31-56N, longitude: 004-24W, elevation: 1034 m

Current weather observation

The report was made 1 hour and 15 minutes ago, at 11:00 UTC
Wind 4 kt from the East/Northeast, varying between North and South
Temperature 16°C
Humidity 23%
Pressure 1023 hPa
Visibility 10 km or more
no clouds below 1500 m and no cumulonimbus

METAR: GMFK 291100Z 07004KT 360V170 CAVOK 16/M05 Q1023 NOSIG

Time: 13:15 (12:15 UTC)

Forecast

The report was made 1 hour and 15 minutes ago, at 11:00 UTC
Forecast valid from 29 at 12 UTC to 30 at 18 UTC
Wind 8 kt from the South
Visibility 10 km or more
no clouds below 1500 m and no cumulonimbus

TAF: GMFK 291100Z 2912/3018 18008KT CAVOK

Weather observations and forecasts of more than 4000 airports (METAR and TAF reports).

The available stations are represented by yellow and red dots on the map.

Hover mouse over dot to see the name of the station.

Then click to see weather observations and forecasts.

To change the map : click on the green buttons with a black cross to zoom in, on the green button with a dash to zoom out, or on the green arrows for adjacent maps.


METAR-TAF: